sensor_id;sensor_type;location;lat;lon;timestamp;P1;durP1;ratioP1;P2;durP2;ratioP2
75429;SDS011;64127;51.488;5.462;2024-02-21T00:01:36;17.27;;;8.10;;
75429;SDS011;64127;51.488;5.462;2024-02-21T00:04:08;13.97;;;8.10;;
75429;SDS011;64127;51.488;5.462;2024-02-21T00:06:40;16.97;;;7.37;;
75429;SDS011;64127;51.488;5.462;2024-02-21T00:09:12;16.30;;;8.20;;
75429;SDS011;64127;51.488;5.462;2024-02-21T00:11:44;17.07;;;8.40;;
75429;SDS011;64127;51.488;5.462;2024-02-21T00:14:16;16.73;;;7.30;;
75429;SDS011;64127;51.488;5.462;2024-02-21T00:16:49;16.43;;;7.77;;
75429;SDS011;64127;51.488;5.462;2024-02-21T00:19:21;14.47;;;7.43;;
75429;SDS011;64127;51.488;5.462;2024-02-21T00:21:53;15.63;;;7.97;;
75429;SDS011;64127;51.488;5.462;2024-02-21T00:24:25;15.57;;;8.03;;
75429;SDS011;64127;51.488;5.462;2024-02-21T00:26:57;17.40;;;7.93;;
75429;SDS011;64127;51.488;5.462;2024-02-21T00:29:29;15.63;;;7.40;;
75429;SDS011;64127;51.488;5.462;2024-02-21T00:32:01;16.80;;;7.03;;
75429;SDS011;64127;51.488;5.462;2024-02-21T00:34:33;15.30;;;7.57;;
75429;SDS011;64127;51.488;5.462;2024-02-21T00:37:07;16.57;;;6.90;;
75429;SDS011;64127;51.488;5.462;2024-02-21T00:39:39;14.93;;;7.57;;
75429;SDS011;64127;51.488;5.462;2024-02-21T00:42:11;16.47;;;7.70;;
75429;SDS011;64127;51.488;5.462;2024-02-21T00:44:43;14.97;;;7.30;;
75429;SDS011;64127;51.488;5.462;2024-02-21T00:47:15;14.83;;;7.80;;
75429;SDS011;64127;51.488;5.462;2024-02-21T00:49:47;16.90;;;8.17;;
75429;SDS011;64127;51.488;5.462;2024-02-21T00:52:19;13.43;;;7.13;;
75429;SDS011;64127;51.488;5.462;2024-02-21T00:54:51;14.60;;;7.37;;
75429;SDS011;64127;51.488;5.462;2024-02-21T00:57:25;12.57;;;7.20;;
75429;SDS011;64127;51.488;5.462;2024-02-21T00:59:58;12.83;;;7.00;;
75429;SDS011;64127;51.488;5.462;2024-02-21T01:02:29;15.13;;;7.43;;
75429;SDS011;64127;51.488;5.462;2024-02-21T01:05:05;15.30;;;7.23;;
75429;SDS011;64127;51.488;5.462;2024-02-21T01:07:37;11.17;;;6.60;;
75429;SDS011;64127;51.488;5.462;2024-02-21T01:10:09;14.17;;;6.93;;
75429;SDS011;64127;51.488;5.462;2024-02-21T01:12:42;11.97;;;6.27;;
75429;SDS011;64127;51.488;5.462;2024-02-21T01:15:14;14.07;;;7.23;;
75429;SDS011;64127;51.488;5.462;2024-02-21T01:17:46;14.90;;;6.87;;
75429;SDS011;64127;51.488;5.462;2024-02-21T01:20:18;16.37;;;7.80;;
75429;SDS011;64127;51.488;5.462;2024-02-21T01:22:50;14.00;;;6.83;;
75429;SDS011;64127;51.488;5.462;2024-02-21T01:25:22;13.27;;;6.80;;
75429;SDS011;64127;51.488;5.462;2024-02-21T01:27:55;14.90;;;6.93;;
75429;SDS011;64127;51.488;5.462;2024-02-21T01:30:26;11.83;;;6.83;;
75429;SDS011;64127;51.488;5.462;2024-02-21T01:32:58;9.77;;;5.93;;
75429;SDS011;64127;51.488;5.462;2024-02-21T01:35:30;12.60;;;6.50;;
75429;SDS011;64127;51.488;5.462;2024-02-21T01:38:03;15.60;;;6.33;;
75429;SDS011;64127;51.488;5.462;2024-02-21T01:40:36;13.83;;;6.27;;
75429;SDS011;64127;51.488;5.462;2024-02-21T01:43:15;13.33;;;6.70;;
75429;SDS011;64127;51.488;5.462;2024-02-21T01:45:50;14.53;;;6.83;;
75429;SDS011;64127;51.488;5.462;2024-02-21T01:48:26;12.37;;;6.27;;
75429;SDS011;64127;51.488;5.462;2024-02-21T01:50:59;14.03;;;6.37;;
75429;SDS011;64127;51.488;5.462;2024-02-21T01:53:34;15.43;;;7.23;;
75429;SDS011;64127;51.488;5.462;2024-02-21T01:56:13;14.07;;;6.57;;
75429;SDS011;64127;51.488;5.462;2024-02-21T01:58:46;11.97;;;6.23;;
75429;SDS011;64127;51.488;5.462;2024-02-21T02:01:20;10.90;;;5.73;;
75429;SDS011;64127;51.488;5.462;2024-02-21T02:03:53;15.70;;;6.57;;
75429;SDS011;64127;51.488;5.462;2024-02-21T02:06:27;10.03;;;5.70;;
75429;SDS011;64127;51.488;5.462;2024-02-21T02:08:59;12.20;;;6.07;;
75429;SDS011;64127;51.488;5.462;2024-02-21T02:11:31;10.57;;;5.87;;
75429;SDS011;64127;51.488;5.462;2024-02-21T02:14:04;12.73;;;6.07;;
75429;SDS011;64127;51.488;5.462;2024-02-21T02:16:36;11.77;;;6.10;;
75429;SDS011;64127;51.488;5.462;2024-02-21T02:19:08;11.63;;;6.00;;
75429;SDS011;64127;51.488;5.462;2024-02-21T02:21:49;12.43;;;5.93;;
75429;SDS011;64127;51.488;5.462;2024-02-21T02:24:27;9.00;;;5.70;;
75429;SDS011;64127;51.488;5.462;2024-02-21T02:27:00;11.17;;;5.80;;
75429;SDS011;64127;51.488;5.462;2024-02-21T02:29:32;9.63;;;5.20;;
75429;SDS011;64127;51.488;5.462;2024-02-21T02:32:04;10.23;;;5.43;;
75429;SDS011;64127;51.488;5.462;2024-02-21T02:34:37;10.80;;;5.90;;
75429;SDS011;64127;51.488;5.462;2024-02-21T02:37:09;11.27;;;6.00;;
75429;SDS011;64127;51.488;5.462;2024-02-21T02:39:41;9.97;;;5.10;;
75429;SDS011;64127;51.488;5.462;2024-02-21T02:42:13;10.63;;;5.90;;
75429;SDS011;64127;51.488;5.462;2024-02-21T02:44:45;9.87;;;5.43;;
75429;SDS011;64127;51.488;5.462;2024-02-21T02:47:18;11.10;;;5.50;;
75429;SDS011;64127;51.488;5.462;2024-02-21T02:49:50;8.83;;;5.50;;
75429;SDS011;64127;51.488;5.462;2024-02-21T02:52:22;11.77;;;6.00;;
75429;SDS011;64127;51.488;5.462;2024-02-21T02:54:54;10.27;;;5.37;;
75429;SDS011;64127;51.488;5.462;2024-02-21T02:57:27;12.13;;;5.50;;
75429;SDS011;64127;51.488;5.462;2024-02-21T02:59:59;7.83;;;5.17;;
75429;SDS011;64127;51.488;5.462;2024-02-21T03:02:31;7.73;;;5.00;;
75429;SDS011;64127;51.488;5.462;2024-02-21T03:05:16;9.73;;;5.17;;
75429;SDS011;64127;51.488;5.462;2024-02-21T03:07:53;10.37;;;4.80;;
75429;SDS011;64127;51.488;5.462;2024-02-21T03:10:46;11.70;;;5.50;;
75429;SDS011;64127;51.488;5.462;2024-02-21T03:13:18;9.47;;;5.00;;
75429;SDS011;64127;51.488;5.462;2024-02-21T03:15:50;7.73;;;4.93;;
75429;SDS011;64127;51.488;5.462;2024-02-21T03:18:22;7.83;;;5.30;;
75429;SDS011;64127;51.488;5.462;2024-02-21T03:20:55;7.50;;;4.57;;
75429;SDS011;64127;51.488;5.462;2024-02-21T03:23:27;9.07;;;4.87;;
75429;SDS011;64127;51.488;5.462;2024-02-21T03:25:59;8.43;;;4.70;;
75429;SDS011;64127;51.488;5.462;2024-02-21T03:28:31;8.40;;;5.33;;
75429;SDS011;64127;51.488;5.462;2024-02-21T03:31:03;8.97;;;4.83;;
75429;SDS011;64127;51.488;5.462;2024-02-21T03:33:35;8.70;;;4.80;;
75429;SDS011;64127;51.488;5.462;2024-02-21T03:36:12;8.63;;;4.73;;
75429;SDS011;64127;51.488;5.462;2024-02-21T03:38:46;9.30;;;4.80;;
75429;SDS011;64127;51.488;5.462;2024-02-21T03:41:19;8.43;;;5.00;;
75429;SDS011;64127;51.488;5.462;2024-02-21T03:43:53;7.83;;;5.07;;
75429;SDS011;64127;51.488;5.462;2024-02-21T03:46:25;8.80;;;5.20;;
75429;SDS011;64127;51.488;5.462;2024-02-21T03:48:58;9.87;;;5.47;;
75429;SDS011;64127;51.488;5.462;2024-02-21T03:51:32;6.23;;;4.87;;
75429;SDS011;64127;51.488;5.462;2024-02-21T03:54:04;7.00;;;5.43;;
75429;SDS011;64127;51.488;5.462;2024-02-21T03:56:39;9.27;;;5.13;;
75429;SDS011;64127;51.488;5.462;2024-02-21T03:59:11;8.37;;;5.40;;
75429;SDS011;64127;51.488;5.462;2024-02-21T04:01:43;8.77;;;5.50;;
75429;SDS011;64127;51.488;5.462;2024-02-21T04:04:15;10.30;;;5.63;;
75429;SDS011;64127;51.488;5.462;2024-02-21T04:06:47;8.93;;;5.03;;
75429;SDS011;64127;51.488;5.462;2024-02-21T04:09:20;9.13;;;5.17;;
75429;SDS011;64127;51.488;5.462;2024-02-21T04:11:53;7.33;;;4.83;;
75429;SDS011;64127;51.488;5.462;2024-02-21T04:14:25;8.77;;;4.87;;
75429;SDS011;64127;51.488;5.462;2024-02-21T04:16:57;9.40;;;5.43;;
75429;SDS011;64127;51.488;5.462;2024-02-21T04:19:29;10.03;;;5.30;;
75429;SDS011;64127;51.488;5.462;2024-02-21T04:22:02;9.70;;;5.40;;
75429;SDS011;64127;51.488;5.462;2024-02-21T04:24:34;12.13;;;5.93;;
75429;SDS011;64127;51.488;5.462;2024-02-21T04:27:06;9.23;;;5.90;;
75429;SDS011;64127;51.488;5.462;2024-02-21T04:29:38;11.83;;;6.10;;
75429;SDS011;64127;51.488;5.462;2024-02-21T04:32:10;11.17;;;6.47;;
75429;SDS011;64127;51.488;5.462;2024-02-21T04:34:42;11.67;;;6.07;;
75429;SDS011;64127;51.488;5.462;2024-02-21T04:37:15;9.07;;;6.40;;
75429;SDS011;64127;51.488;5.462;2024-02-21T04:39:48;12.37;;;6.67;;
75429;SDS011;64127;51.488;5.462;2024-02-21T04:42:20;12.83;;;6.57;;
75429;SDS011;64127;51.488;5.462;2024-02-21T04:44:52;12.63;;;7.03;;
75429;SDS011;64127;51.488;5.462;2024-02-21T04:47:24;10.77;;;6.97;;
75429;SDS011;64127;51.488;5.462;2024-02-21T04:49:56;12.10;;;7.30;;
75429;SDS011;64127;51.488;5.462;2024-02-21T04:52:28;15.53;;;7.20;;
75429;SDS011;64127;51.488;5.462;2024-02-21T04:55:01;11.87;;;7.20;;
75429;SDS011;64127;51.488;5.462;2024-02-21T04:57:33;11.07;;;7.17;;
75429;SDS011;64127;51.488;5.462;2024-02-21T05:00:05;11.47;;;7.00;;
75429;SDS011;64127;51.488;5.462;2024-02-21T05:02:38;12.63;;;7.50;;
75429;SDS011;64127;51.488;5.462;2024-02-21T05:05:10;13.00;;;7.53;;
75429;SDS011;64127;51.488;5.462;2024-02-21T05:07:43;15.23;;;7.93;;
75429;SDS011;64127;51.488;5.462;2024-02-21T05:10:15;12.20;;;7.00;;
75429;SDS011;64127;51.488;5.462;2024-02-21T05:12:49;13.23;;;7.50;;
75429;SDS011;64127;51.488;5.462;2024-02-21T05:15:21;11.90;;;7.37;;
75429;SDS011;64127;51.488;5.462;2024-02-21T05:17:53;12.63;;;6.83;;
75429;SDS011;64127;51.488;5.462;2024-02-21T05:20:25;12.47;;;7.53;;
75429;SDS011;64127;51.488;5.462;2024-02-21T05:22:58;10.90;;;7.53;;
75429;SDS011;64127;51.488;5.462;2024-02-21T05:25:30;12.47;;;7.20;;
75429;SDS011;64127;51.488;5.462;2024-02-21T05:28:02;12.03;;;7.50;;
75429;SDS011;64127;51.488;5.462;2024-02-21T05:30:34;8.97;;;6.80;;
75429;SDS011;64127;51.488;5.462;2024-02-21T05:33:06;14.10;;;7.07;;
75429;SDS011;64127;51.488;5.462;2024-02-21T05:35:39;14.83;;;7.57;;
75429;SDS011;64127;51.488;5.462;2024-02-21T05:38:11;11.83;;;6.83;;
75429;SDS011;64127;51.488;5.462;2024-02-21T05:40:46;13.73;;;7.13;;
75429;SDS011;64127;51.488;5.462;2024-02-21T05:43:18;14.83;;;7.37;;
75429;SDS011;64127;51.488;5.462;2024-02-21T05:45:52;11.27;;;7.47;;
75429;SDS011;64127;51.488;5.462;2024-02-21T05:48:24;12.83;;;7.20;;
75429;SDS011;64127;51.488;5.462;2024-02-21T05:50:56;12.80;;;7.03;;
75429;SDS011;64127;51.488;5.462;2024-02-21T05:53:29;13.33;;;7.67;;
75429;SDS011;64127;51.488;5.462;2024-02-21T05:56:00;12.70;;;7.77;;
75429;SDS011;64127;51.488;5.462;2024-02-21T05:58:33;14.20;;;8.07;;
75429;SDS011;64127;51.488;5.462;2024-02-21T06:01:05;12.20;;;7.13;;
75429;SDS011;64127;51.488;5.462;2024-02-21T06:03:38;14.13;;;7.50;;
75429;SDS011;64127;51.488;5.462;2024-02-21T06:06:10;14.80;;;7.33;;
75429;SDS011;64127;51.488;5.462;2024-02-21T06:08:42;14.13;;;7.70;;
75429;SDS011;64127;51.488;5.462;2024-02-21T06:11:14;11.50;;;7.47;;
75429;SDS011;64127;51.488;5.462;2024-02-21T06:13:47;13.40;;;7.47;;
75429;SDS011;64127;51.488;5.462;2024-02-21T06:16:19;12.17;;;8.10;;
75429;SDS011;64127;51.488;5.462;2024-02-21T06:18:51;16.10;;;7.77;;
75429;SDS011;64127;51.488;5.462;2024-02-21T06:21:23;15.10;;;7.97;;
75429;SDS011;64127;51.488;5.462;2024-02-21T06:24:01;13.90;;;7.77;;
75429;SDS011;64127;51.488;5.462;2024-02-21T06:26:33;10.47;;;7.33;;
75429;SDS011;64127;51.488;5.462;2024-02-21T06:29:05;14.00;;;8.07;;
75429;SDS011;64127;51.488;5.462;2024-02-21T06:31:37;12.50;;;7.73;;
75429;SDS011;64127;51.488;5.462;2024-02-21T06:34:09;11.97;;;8.03;;
75429;SDS011;64127;51.488;5.462;2024-02-21T06:36:41;12.60;;;7.90;;
75429;SDS011;64127;51.488;5.462;2024-02-21T06:39:13;14.48;;;8.75;;
75429;SDS011;64127;51.488;5.462;2024-02-21T06:41:45;12.27;;;8.33;;
75429;SDS011;64127;51.488;5.462;2024-02-21T06:44:19;13.23;;;8.10;;
75429;SDS011;64127;51.488;5.462;2024-02-21T06:46:52;13.83;;;7.60;;
75429;SDS011;64127;51.488;5.462;2024-02-21T06:49:25;13.13;;;8.97;;
75429;SDS011;64127;51.488;5.462;2024-02-21T06:51:58;11.37;;;8.57;;
75429;SDS011;64127;51.488;5.462;2024-02-21T06:54:30;13.03;;;8.40;;
75429;SDS011;64127;51.488;5.462;2024-02-21T06:57:02;11.90;;;8.23;;
75429;SDS011;64127;51.488;5.462;2024-02-21T06:59:34;13.33;;;8.67;;
75429;SDS011;64127;51.488;5.462;2024-02-21T07:02:06;11.80;;;8.60;;
75429;SDS011;64127;51.488;5.462;2024-02-21T07:04:39;12.97;;;8.67;;
75429;SDS011;64127;51.488;5.462;2024-02-21T07:07:11;15.10;;;8.87;;
75429;SDS011;64127;51.488;5.462;2024-02-21T07:09:44;15.03;;;9.07;;
75429;SDS011;64127;51.488;5.462;2024-02-21T07:12:17;13.53;;;9.17;;
75429;SDS011;64127;51.488;5.462;2024-02-21T07:14:50;14.67;;;8.93;;
75429;SDS011;64127;51.488;5.462;2024-02-21T07:17:22;13.43;;;8.73;;
75429;SDS011;64127;51.488;5.462;2024-02-21T07:19:54;15.57;;;9.13;;
75429;SDS011;64127;51.488;5.462;2024-02-21T07:22:28;15.90;;;8.80;;
75429;SDS011;64127;51.488;5.462;2024-02-21T07:25:00;12.60;;;8.37;;
75429;SDS011;64127;51.488;5.462;2024-02-21T07:27:36;12.67;;;8.70;;
75429;SDS011;64127;51.488;5.462;2024-02-21T07:30:08;12.43;;;8.30;;
75429;SDS011;64127;51.488;5.462;2024-02-21T07:32:44;14.17;;;8.77;;
75429;SDS011;64127;51.488;5.462;2024-02-21T07:35:19;12.43;;;8.47;;
75429;SDS011;64127;51.488;5.462;2024-02-21T07:37:51;13.03;;;8.93;;
75429;SDS011;64127;51.488;5.462;2024-02-21T07:40:23;11.67;;;8.07;;
75429;SDS011;64127;51.488;5.462;2024-02-21T07:42:56;12.60;;;8.53;;
75429;SDS011;64127;51.488;5.462;2024-02-21T07:45:28;11.37;;;8.03;;
75429;SDS011;64127;51.488;5.462;2024-02-21T07:48:00;12.87;;;8.17;;
75429;SDS011;64127;51.488;5.462;2024-02-21T07:50:32;12.00;;;8.10;;
75429;SDS011;64127;51.488;5.462;2024-02-21T07:53:04;10.10;;;7.50;;
75429;SDS011;64127;51.488;5.462;2024-02-21T07:55:36;13.17;;;8.23;;
75429;SDS011;64127;51.488;5.462;2024-02-21T07:58:08;10.37;;;7.70;;
75429;SDS011;64127;51.488;5.462;2024-02-21T08:00:40;11.27;;;7.47;;
75429;SDS011;64127;51.488;5.462;2024-02-21T08:03:12;9.77;;;7.23;;
75429;SDS011;64127;51.488;5.462;2024-02-21T08:05:46;11.03;;;7.13;;
75429;SDS011;64127;51.488;5.462;2024-02-21T08:08:18;9.07;;;7.13;;
75429;SDS011;64127;51.488;5.462;2024-02-21T08:10:53;9.57;;;6.93;;
75429;SDS011;64127;51.488;5.462;2024-02-21T08:13:25;9.70;;;6.73;;
75429;SDS011;64127;51.488;5.462;2024-02-21T08:15:58;9.87;;;6.73;;
75429;SDS011;64127;51.488;5.462;2024-02-21T08:18:30;7.10;;;6.30;;
75429;SDS011;64127;51.488;5.462;2024-02-21T08:21:03;9.60;;;6.43;;
75429;SDS011;64127;51.488;5.462;2024-02-21T08:23:35;10.27;;;5.77;;
75429;SDS011;64127;51.488;5.462;2024-02-21T08:26:07;7.83;;;6.00;;
75429;SDS011;64127;51.488;5.462;2024-02-21T08:28:39;5.87;;;5.13;;
75429;SDS011;64127;51.488;5.462;2024-02-21T08:31:18;7.20;;;5.70;;
75429;SDS011;64127;51.488;5.462;2024-02-21T08:33:51;10.30;;;5.80;;
75429;SDS011;64127;51.488;5.462;2024-02-21T08:36:23;7.97;;;5.97;;
75429;SDS011;64127;51.488;5.462;2024-02-21T08:38:55;7.37;;;5.70;;
75429;SDS011;64127;51.488;5.462;2024-02-21T08:41:28;7.57;;;5.90;;
75429;SDS011;64127;51.488;5.462;2024-02-21T08:44:22;8.27;;;5.60;;
75429;SDS011;64127;51.488;5.462;2024-02-21T08:46:58;7.43;;;5.80;;
75429;SDS011;64127;51.488;5.462;2024-02-21T08:49:30;6.53;;;5.67;;
75429;SDS011;64127;51.488;5.462;2024-02-21T08:52:05;8.17;;;6.13;;
75429;SDS011;64127;51.488;5.462;2024-02-21T08:54:37;6.60;;;5.80;;
75429;SDS011;64127;51.488;5.462;2024-02-21T08:57:09;7.83;;;6.27;;
75429;SDS011;64127;51.488;5.462;2024-02-21T08:59:41;8.80;;;6.27;;
75429;SDS011;64127;51.488;5.462;2024-02-21T09:02:13;7.10;;;6.20;;
75429;SDS011;64127;51.488;5.462;2024-02-21T09:04:49;7.67;;;6.07;;
75429;SDS011;64127;51.488;5.462;2024-02-21T09:07:21;6.23;;;5.63;;
75429;SDS011;64127;51.488;5.462;2024-02-21T09:09:53;6.93;;;6.07;;
75429;SDS011;64127;51.488;5.462;2024-02-21T09:12:25;7.17;;;6.10;;
75429;SDS011;64127;51.488;5.462;2024-02-21T09:14:57;7.60;;;6.27;;
75429;SDS011;64127;51.488;5.462;2024-02-21T09:17:29;7.33;;;6.50;;
75429;SDS011;64127;51.488;5.462;2024-02-21T09:20:01;7.07;;;6.20;;
75429;SDS011;64127;51.488;5.462;2024-02-21T09:22:35;8.60;;;6.20;;
75429;SDS011;64127;51.488;5.462;2024-02-21T09:25:07;8.07;;;7.27;;
75429;SDS011;64127;51.488;5.462;2024-02-21T09:27:41;11.03;;;7.23;;
75429;SDS011;64127;51.488;5.462;2024-02-21T09:30:15;8.57;;;7.43;;
75429;SDS011;64127;51.488;5.462;2024-02-21T09:32:47;9.17;;;7.63;;
75429;SDS011;64127;51.488;5.462;2024-02-21T09:35:19;9.77;;;7.63;;
75429;SDS011;64127;51.488;5.462;2024-02-21T09:37:54;9.93;;;7.27;;
75429;SDS011;64127;51.488;5.462;2024-02-21T09:40:27;9.33;;;7.60;;
75429;SDS011;64127;51.488;5.462;2024-02-21T09:43:02;9.50;;;7.83;;
75429;SDS011;64127;51.488;5.462;2024-02-21T09:45:38;9.43;;;7.67;;
75429;SDS011;64127;51.488;5.462;2024-02-21T09:48:38;10.97;;;7.30;;
75429;SDS011;64127;51.488;5.462;2024-02-21T09:51:47;9.93;;;6.90;;
75429;SDS011;64127;51.488;5.462;2024-02-21T09:54:25;9.80;;;7.17;;
75429;SDS011;64127;51.488;5.462;2024-02-21T09:57:00;10.73;;;7.07;;
75429;SDS011;64127;51.488;5.462;2024-02-21T09:59:37;12.20;;;7.67;;
75429;SDS011;64127;51.488;5.462;2024-02-21T10:02:13;9.93;;;6.70;;
75429;SDS011;64127;51.488;5.462;2024-02-21T10:04:45;9.57;;;6.67;;
75429;SDS011;64127;51.488;5.462;2024-02-21T10:07:17;9.30;;;6.40;;
75429;SDS011;64127;51.488;5.462;2024-02-21T10:10:00;8.40;;;6.27;;
75429;SDS011;64127;51.488;5.462;2024-02-21T10:12:35;8.27;;;6.20;;
75429;SDS011;64127;51.488;5.462;2024-02-21T10:15:07;8.00;;;5.53;;
75429;SDS011;64127;51.488;5.462;2024-02-21T10:17:40;7.77;;;5.27;;
75429;SDS011;64127;51.488;5.462;2024-02-21T10:20:12;10.73;;;5.90;;
75429;SDS011;64127;51.488;5.462;2024-02-21T10:22:46;8.77;;;5.60;;
75429;SDS011;64127;51.488;5.462;2024-02-21T10:25:18;10.23;;;5.50;;
75429;SDS011;64127;51.488;5.462;2024-02-21T10:27:52;8.73;;;5.77;;
75429;SDS011;64127;51.488;5.462;2024-02-21T10:30:24;8.07;;;5.20;;
75429;SDS011;64127;51.488;5.462;2024-02-21T10:32:56;7.97;;;4.90;;
75429;SDS011;64127;51.488;5.462;2024-02-21T10:35:29;5.57;;;4.90;;
75429;SDS011;64127;51.488;5.462;2024-02-21T10:38:05;8.83;;;4.77;;
75429;SDS011;64127;51.488;5.462;2024-02-21T10:40:37;6.53;;;4.70;;
75429;SDS011;64127;51.488;5.462;2024-02-21T10:43:12;7.90;;;4.90;;
75429;SDS011;64127;51.488;5.462;2024-02-21T10:45:45;9.73;;;6.53;;
75429;SDS011;64127;51.488;5.462;2024-02-21T10:48:21;6.90;;;5.07;;
75429;SDS011;64127;51.488;5.462;2024-02-21T10:51:27;11.30;;;9.33;;
75429;SDS011;64127;51.488;5.462;2024-02-21T10:56:45;8.13;;;5.03;;
75429;SDS011;64127;51.488;5.462;2024-02-21T10:59:21;8.13;;;5.10;;
75429;SDS011;64127;51.488;5.462;2024-02-21T11:01:54;7.20;;;4.83;;
75429;SDS011;64127;51.488;5.462;2024-02-21T11:04:29;6.80;;;4.47;;
75429;SDS011;64127;51.488;5.462;2024-02-21T11:07:07;9.30;;;4.80;;
75429;SDS011;64127;51.488;5.462;2024-02-21T11:09:50;10.33;;;4.87;;
75429;SDS011;64127;51.488;5.462;2024-02-21T11:12:27;6.30;;;4.40;;
75429;SDS011;64127;51.488;5.462;2024-02-21T11:15:05;6.80;;;4.57;;
75429;SDS011;64127;51.488;5.462;2024-02-21T11:17:38;7.53;;;4.27;;
75429;SDS011;64127;51.488;5.462;2024-02-21T11:20:20;5.03;;;4.10;;
75429;SDS011;64127;51.488;5.462;2024-02-21T11:23:04;8.03;;;4.80;;
75429;SDS011;64127;51.488;5.462;2024-02-21T11:25:36;6.40;;;3.97;;
75429;SDS011;64127;51.488;5.462;2024-02-21T11:28:08;7.17;;;4.37;;
75429;SDS011;64127;51.488;5.462;2024-02-21T11:30:42;7.13;;;4.43;;
75429;SDS011;64127;51.488;5.462;2024-02-21T11:33:14;6.23;;;4.10;;
75429;SDS011;64127;51.488;5.462;2024-02-21T11:35:48;7.43;;;4.10;;
75429;SDS011;64127;51.488;5.462;2024-02-21T11:38:22;7.80;;;4.40;;
75429;SDS011;64127;51.488;5.462;2024-02-21T11:40:56;6.93;;;4.20;;
75429;SDS011;64127;51.488;5.462;2024-02-21T11:43:29;6.40;;;4.27;;
75429;SDS011;64127;51.488;5.462;2024-02-21T11:46:02;7.80;;;4.27;;
75429;SDS011;64127;51.488;5.462;2024-02-21T11:48:34;8.13;;;4.47;;
75429;SDS011;64127;51.488;5.462;2024-02-21T11:51:07;8.03;;;4.80;;
75429;SDS011;64127;51.488;5.462;2024-02-21T11:53:39;6.93;;;4.27;;
75429;SDS011;64127;51.488;5.462;2024-02-21T11:56:24;5.87;;;3.77;;
75429;SDS011;64127;51.488;5.462;2024-02-21T11:58:58;9.10;;;4.23;;
75429;SDS011;64127;51.488;5.462;2024-02-21T12:01:30;8.47;;;4.20;;
75429;SDS011;64127;51.488;5.462;2024-02-21T12:04:03;7.43;;;4.07;;
75429;SDS011;64127;51.488;5.462;2024-02-21T12:06:35;7.07;;;4.20;;
75429;SDS011;64127;51.488;5.462;2024-02-21T12:09:07;8.67;;;4.53;;
75429;SDS011;64127;51.488;5.462;2024-02-21T12:11:43;6.70;;;4.17;;
75429;SDS011;64127;51.488;5.462;2024-02-21T12:14:29;7.70;;;3.83;;
75429;SDS011;64127;51.488;5.462;2024-02-21T12:17:02;9.30;;;4.50;;
75429;SDS011;64127;51.488;5.462;2024-02-21T12:19:38;6.90;;;4.30;;
75429;SDS011;64127;51.488;5.462;2024-02-21T12:22:15;6.30;;;3.80;;
75429;SDS011;64127;51.488;5.462;2024-02-21T12:24:49;5.83;;;3.90;;
75429;SDS011;64127;51.488;5.462;2024-02-21T12:27:21;7.17;;;3.63;;
75429;SDS011;64127;51.488;5.462;2024-02-21T12:29:55;6.83;;;3.90;;
75429;SDS011;64127;51.488;5.462;2024-02-21T12:32:27;6.70;;;3.90;;
75429;SDS011;64127;51.488;5.462;2024-02-21T12:34:59;8.17;;;3.90;;
75429;SDS011;64127;51.488;5.462;2024-02-21T12:37:31;6.10;;;3.67;;
75429;SDS011;64127;51.488;5.462;2024-02-21T12:40:07;5.20;;;3.63;;
75429;SDS011;64127;51.488;5.462;2024-02-21T12:42:42;7.87;;;4.10;;
75429;SDS011;64127;51.488;5.462;2024-02-21T12:45:14;5.93;;;3.77;;
75429;SDS011;64127;51.488;5.462;2024-02-21T12:47:47;7.63;;;4.20;;
75429;SDS011;64127;51.488;5.462;2024-02-21T12:50:19;7.60;;;3.87;;
75429;SDS011;64127;51.488;5.462;2024-02-21T12:52:51;8.83;;;4.53;;
75429;SDS011;64127;51.488;5.462;2024-02-21T12:55:23;5.80;;;3.87;;
75429;SDS011;64127;51.488;5.462;2024-02-21T12:57:56;6.70;;;4.17;;
75429;SDS011;64127;51.488;5.462;2024-02-21T13:00:29;6.03;;;3.60;;
75429;SDS011;64127;51.488;5.462;2024-02-21T13:03:03;6.97;;;3.90;;
75429;SDS011;64127;51.488;5.462;2024-02-21T13:05:36;8.37;;;3.90;;
75429;SDS011;64127;51.488;5.462;2024-02-21T13:08:08;5.33;;;3.67;;
75429;SDS011;64127;51.488;5.462;2024-02-21T13:10:41;9.87;;;4.37;;
75429;SDS011;64127;51.488;5.462;2024-02-21T13:13:13;7.47;;;4.13;;
75429;SDS011;64127;51.488;5.462;2024-02-21T13:15:45;9.53;;;4.43;;
75429;SDS011;64127;51.488;5.462;2024-02-21T13:18:17;6.77;;;3.77;;
75429;SDS011;64127;51.488;5.462;2024-02-21T13:20:49;5.93;;;3.83;;
75429;SDS011;64127;51.488;5.462;2024-02-21T13:23:21;10.63;;;7.00;;
75429;SDS011;64127;51.488;5.462;2024-02-21T13:25:53;8.43;;;4.17;;
75429;SDS011;64127;51.488;5.462;2024-02-21T13:28:25;6.63;;;3.40;;
75429;SDS011;64127;51.488;5.462;2024-02-21T13:30:57;9.10;;;4.00;;
75429;SDS011;64127;51.488;5.462;2024-02-21T13:33:29;5.70;;;3.10;;
75429;SDS011;64127;51.488;5.462;2024-02-21T13:36:02;5.53;;;3.30;;
75429;SDS011;64127;51.488;5.462;2024-02-21T13:38:35;9.03;;;5.90;;
75429;SDS011;64127;51.488;5.462;2024-02-21T13:41:07;4.95;;;3.13;;
75429;SDS011;64127;51.488;5.462;2024-02-21T13:43:39;5.77;;;3.20;;
75429;SDS011;64127;51.488;5.462;2024-02-21T13:46:11;4.90;;;3.50;;
75429;SDS011;64127;51.488;5.462;2024-02-21T13:48:43;4.77;;;3.30;;
75429;SDS011;64127;51.488;5.462;2024-02-21T13:51:15;7.37;;;3.77;;
75429;SDS011;64127;51.488;5.462;2024-02-21T13:53:48;4.07;;;3.40;;
75429;SDS011;64127;51.488;5.462;2024-02-21T13:56:20;6.60;;;4.50;;
75429;SDS011;64127;51.488;5.462;2024-02-21T13:58:52;6.00;;;3.60;;
75429;SDS011;64127;51.488;5.462;2024-02-21T14:01:24;5.30;;;3.47;;
75429;SDS011;64127;51.488;5.462;2024-02-21T14:03:56;5.40;;;3.10;;
75429;SDS011;64127;51.488;5.462;2024-02-21T14:06:28;6.43;;;2.90;;
75429;SDS011;64127;51.488;5.462;2024-02-21T14:09:00;4.20;;;3.13;;
75429;SDS011;64127;51.488;5.462;2024-02-21T14:11:32;4.07;;;2.60;;
75429;SDS011;64127;51.488;5.462;2024-02-21T14:14:05;4.10;;;2.80;;
75429;SDS011;64127;51.488;5.462;2024-02-21T14:16:37;4.67;;;2.80;;
75429;SDS011;64127;51.488;5.462;2024-02-21T14:19:09;7.53;;;3.20;;
75429;SDS011;64127;51.488;5.462;2024-02-21T14:21:43;5.43;;;2.93;;
75429;SDS011;64127;51.488;5.462;2024-02-21T14:24:15;7.23;;;2.70;;
75429;SDS011;64127;51.488;5.462;2024-02-21T14:26:47;4.23;;;2.90;;
75429;SDS011;64127;51.488;5.462;2024-02-21T14:29:20;4.50;;;2.97;;
75429;SDS011;64127;51.488;5.462;2024-02-21T14:31:53;5.87;;;2.90;;
75429;SDS011;64127;51.488;5.462;2024-02-21T14:34:26;4.73;;;2.80;;
75429;SDS011;64127;51.488;5.462;2024-02-21T14:36:58;7.10;;;3.03;;
75429;SDS011;64127;51.488;5.462;2024-02-21T14:39:30;4.63;;;3.23;;
75429;SDS011;64127;51.488;5.462;2024-02-21T14:42:04;4.80;;;2.80;;
75429;SDS011;64127;51.488;5.462;2024-02-21T14:44:36;3.80;;;2.97;;
75429;SDS011;64127;51.488;5.462;2024-02-21T14:47:08;4.33;;;3.13;;
75429;SDS011;64127;51.488;5.462;2024-02-21T14:49:40;4.57;;;3.27;;
75429;SDS011;64127;51.488;5.462;2024-02-21T14:52:12;3.77;;;2.80;;
75429;SDS011;64127;51.488;5.462;2024-02-21T14:54:44;5.37;;;3.20;;
75429;SDS011;64127;51.488;5.462;2024-02-21T14:57:20;5.07;;;3.00;;
75429;SDS011;64127;51.488;5.462;2024-02-21T14:59:52;4.80;;;3.13;;
75429;SDS011;64127;51.488;5.462;2024-02-21T15:02:28;7.20;;;3.50;;
75429;SDS011;64127;51.488;5.462;2024-02-21T15:05:00;5.23;;;3.90;;
75429;SDS011;64127;51.488;5.462;2024-02-21T15:07:32;5.27;;;3.63;;
75429;SDS011;64127;51.488;5.462;2024-02-21T15:10:05;6.60;;;4.20;;
75429;SDS011;64127;51.488;5.462;2024-02-21T15:12:37;7.83;;;4.50;;
75429;SDS011;64127;51.488;5.462;2024-02-21T15:15:09;6.17;;;3.60;;
75429;SDS011;64127;51.488;5.462;2024-02-21T15:17:42;5.80;;;3.57;;
75429;SDS011;64127;51.488;5.462;2024-02-21T15:20:14;4.07;;;3.50;;